Pagrindinis puslapis
METAR-TAF:

METAR-TAF

Oro uostai :

Ankoridžas, Aliaska, Jungtinės Amerikos Valstijos

platuma: 61-10-28N, ilguma: 149-59-46W, Aukštis: 44 m

Dabartinis oras

Ataskaita buvo paskelbta 30 minutes, ne 01:53 UTC
Vėjas 12 kt iš Vakarų/Pietvakarių
Temperatūra 1°C
Drėgmė 47%
Slėgis 1011 hPa
Matomumas: 16.1 km
Mažai debesys ne aukštis 9000 ft
Mažai debesys ne aukštis 25000 ft

METAR: PANC 090153Z 24012KT 10SM FEW090 FEW250 01/M09 A2986 RMK AO2 SLP115 T00111094 $

Laikas: 18:23 (02:23 UTC)

Prognozė

Ataskaita buvo paskelbta 2 valandos ir 43 minutes, ne 23:40 UTC
Prognozė galioja nuo 09 metu 00 UTC su 09 metu 24 UTC
Vėjas 13 kt iš Pietvakarių
Matomumas: 10 km
Mažai debesys ne aukštis 13000 ft
Su prošvaistėmis ne aukštis 20000 ft
Nuo 09 metu 0600 UTC
Vėjas 6 kt nuo kintamojo kryptimis
Matomumas: 10 km
Mažai debesys ne aukštis 10000 ft
Su prošvaistėmis ne aukštis 20000 ft

TAF: PANC 082340Z 0900/0924 22013KT P6SM FEW130 BKN200 FM090600 VRB06KT P6SM FEW100 BKN200

Orai ataskaitas ir orų prognozės (METAR, TAF).

turimą stotys yra geltonos ir raudonos taškus žemėlapyje.

Perkelti pele per norėdami pamatyti stoties vardą.

Tada spustelėkite, norėdami matyti oro stebėjimo ir prognozės.

Norėdami pakeisti žemėlapį: spustelėkite ant žalios mygtukų su juodo kryžiaus žemyn,; žalią mygtuką su brūkšneliu, jei norite nutolinti; arba žalių rodyklių gretimoms žemėlapius.


METAR-TAF: